Time;durP1;ratioP1;P1;durP2;ratioP2;P2;SDS_P1;SDS_P2;PMS_P1;PMS_P2;Temp;Humidity;BMP_temperature;BMP_pressure;BME280_temperature;BME280_humidity;BME280_pressure;Samples;Min_cycle;Max_cycle;Signal;HPM_P1;HPM_P2
2022/08/18 00:01:21;;;;;;;18.58;13.20;;;;;;;;;;5054507;28;20058;-54
2022/08/18 00:03:50;;;;;;;21.80;15.15;;;;;;;;;;5054221;28;20469;-55
2022/08/18 00:06:24;;;;;;;19.83;14.95;;;;;;;;;;5054505;28;20053;-55
2022/08/18 00:08:52;;;;;;;20.75;14.70;;;;;;;;;;5054581;28;20162;-55
2022/08/18 00:11:22;;;;;;;21.65;15.77;;;;;;;;;;5054167;28;20128;-55
2022/08/18 00:13:50;;;;;;;21.13;16.08;;;;;;;;;;5054388;28;20056;-54
2022/08/18 00:18:58;;;;;;;19.67;15.63;;;;;;;;;;5054221;28;20052;-51
2022/08/18 00:21:30;;;;;;;23.65;16.75;;;;;;;;;;5054163;28;20143;-54
2022/08/18 00:23:56;;;;;;;21.45;14.93;;;;;;;;;;5054411;28;20060;-54
2022/08/18 00:26:23;;;;;;;21.20;15.68;;;;;;;;;;5052490;28;20057;-51
2022/08/18 00:28:50;;;;;;;19.42;14.88;;;;;;;;;;5034057;28;20392;-54
2022/08/18 00:31:18;;;;;;;24.45;16.30;;;;;;;;;;5033703;28;20053;-55
2022/08/18 00:33:49;;;;;;;21.00;15.40;;;;;;;;;;5034126;28;20057;-54
2022/08/18 00:36:20;;;;;;;22.33;14.10;;;;;;;;;;5034133;28;20049;-54
2022/08/18 00:38:49;;;;;;;16.13;11.82;;;;;;;;;;5033829;28;20417;-52
2022/08/18 00:41:19;;;;;;;22.75;15.43;;;;;;;;;;5051983;28;20053;-55
2022/08/18 00:43:57;;;;;;;20.15;14.95;;;;;;;;;;5053657;28;20429;-55
2022/08/18 00:46:27;;;;;;;19.95;14.38;;;;;;;;;;5053344;28;20045;-54
2022/08/18 00:48:55;;;;;;;16.83;13.07;;;;;;;;;;5053882;28;20049;-55
2022/08/18 00:51:25;;;;;;;20.05;15.15;;;;;;;;;;5053543;28;20127;-55
2022/08/18 00:53:58;;;;;;;17.48;13.63;;;;;;;;;;5053660;28;20049;-54
2022/08/18 00:56:27;;;;;;;21.15;14.43;;;;;;;;;;5052915;28;20057;-54
2022/08/18 00:58:55;;;;;;;17.63;14.85;;;;;;;;;;5053529;28;20064;-53
2022/08/18 01:01:24;;;;;;;17.38;12.38;;;;;;;;;;5053345;28;20048;-54
2022/08/18 01:03:56;;;;;;;21.35;14.77;;;;;;;;;;5053483;28;20059;-53
2022/08/18 01:06:26;;;;;;;22.20;15.07;;;;;;;;;;5053410;28;20053;-54
2022/08/18 01:09:02;;;;;;;20.13;14.13;;;;;;;;;;5053276;28;20052;-55
2022/08/18 01:11:32;;;;;;;18.00;13.70;;;;;;;;;;5053360;28;20139;-55
2022/08/18 01:14:01;;;;;;;24.73;15.20;;;;;;;;;;5053507;28;20052;-55
2022/08/18 01:21:59;;;;;;;15.43;11.73;;;;;;;;;;5053152;28;19967;-55
2022/08/18 01:27:13;;;;;;;;;;;;;;;;;;5030615;28;20067;-55
2022/08/18 01:29:41;;;;;;;17.42;12.73;;;;;;;;;;5053014;28;20717;-53
2022/08/18 01:32:11;;;;;;;16.52;12.82;;;;;;;;;;5053246;28;20049;-55
2022/08/18 01:34:43;;;;;;;17.05;12.93;;;;;;;;;;5053189;28;20135;-54
2022/08/18 01:37:15;;;;;;;16.73;12.60;;;;;;;;;;5052792;28;20343;-54
2022/08/18 01:39:43;;;;;;;19.42;13.68;;;;;;;;;;5053114;28;20057;-53
2022/08/18 01:42:23;;;;;;;17.95;15.02;;;;;;;;;;5052765;28;20696;-55
2022/08/18 01:44:51;;;;;;;16.25;12.68;;;;;;;;;;5053163;28;20080;-54
2022/08/18 01:47:19;;;;;;;14.38;12.23;;;;;;;;;;5052828;28;20461;-55
2022/08/18 01:49:48;;;;;;;19.85;12.30;;;;;;;;;;5053134;28;20059;-54
2022/08/18 01:52:18;;;;;;;17.30;12.98;;;;;;;;;;5052343;28;20465;-53
2022/08/18 01:54:50;;;;;;;17.13;12.95;;;;;;;;;;5052689;28;20048;-53
2022/08/18 01:57:20;;;;;;;16.75;12.07;;;;;;;;;;5052857;28;20139;-52
2022/08/18 01:59:48;;;;;;;20.38;13.85;;;;;;;;;;5052934;28;20057;-54
2022/08/18 02:02:24;;;;;;;20.60;13.38;;;;;;;;;;5052857;28;20053;-54
2022/08/18 02:04:55;;;;;;;18.63;12.80;;;;;;;;;;5052864;28;20048;-54
2022/08/18 02:07:22;;;;;;;23.35;14.00;;;;;;;;;;5052911;28;20069;-54
2022/08/18 02:09:50;;;;;;;28.75;16.13;;;;;;;;;;5055750;28;20067;-54
2022/08/18 02:12:30;;;;;;;46.58;19.63;;;;;;;;;;5056485;28;20048;-55
2022/08/18 02:14:57;;;;;;;35.80;17.10;;;;;;;;;;5056588;28;20052;-55
2022/08/18 02:17:26;;;;;;;38.28;15.30;;;;;;;;;;5055908;28;20053;-54
2022/08/18 02:19:57;;;;;;;52.30;19.30;;;;;;;;;;5056103;28;20560;-52
2022/08/18 02:22:24;;;;;;;44.58;18.75;;;;;;;;;;5056306;28;20052;-53
2022/08/18 02:24:53;;;;;;;38.28;16.63;;;;;;;;;;5055997;28;20358;-54
2022/08/18 02:27:22;;;;;;;40.92;15.63;;;;;;;;;;5056213;28;20060;-54
2022/08/18 02:29:51;;;;;;;63.42;17.00;;;;;;;;;;5056078;28;20071;-54
2022/08/18 02:32:17;;;;;;;41.10;16.30;;;;;;;;;;5056314;28;20076;-55
2022/08/18 02:34:46;;;;;;;100.68;23.50;;;;;;;;;;5056276;28;20057;-55
2022/08/18 02:37:13;;;;;;;67.65;21.42;;;;;;;;;;5056167;28;20084;-54
2022/08/18 02:39:40;;;;;;;71.28;18.65;;;;;;;;;;5055679;28;20079;-54
2022/08/18 02:42:12;;;;;;;73.97;18.52;;;;;;;;;;5055964;28;20049;-54
2022/08/18 02:44:40;;;;;;;41.17;15.60;;;;;;;;;;5055822;28;20156;-55
2022/08/18 02:47:11;;;;;;;64.28;18.77;;;;;;;;;;5055776;28;20130;-55
2022/08/18 02:49:40;;;;;;;88.13;21.90;;;;;;;;;;5055534;28;20144;-55
2022/08/18 02:52:08;;;;;;;56.63;16.75;;;;;;;;;;5055495;28;20432;-54
2022/08/18 02:54:36;;;;;;;61.90;17.63;;;;;;;;;;5055939;28;20051;-54
2022/08/18 02:57:13;;;;;;;60.25;16.17;;;;;;;;;;5052945;28;20060;-54
2022/08/18 02:59:45;;;;;;;40.03;14.68;;;;;;;;;;5055605;28;20094;-55
2022/08/18 03:02:15;;;;;;;66.35;16.48;;;;;;;;;;5055721;28;20095;-54
2022/08/18 03:04:44;;;;;;;59.35;17.33;;;;;;;;;;5055554;28;20055;-54
2022/08/18 03:09:51;;;;;;;46.20;15.10;;;;;;;;;;5055085;28;20104;-54
2022/08/18 03:12:18;;;;;;;33.85;14.75;;;;;;;;;;5054888;28;20151;-54
2022/08/18 03:15:00;;;;;;;40.55;14.45;;;;;;;;;;5054554;28;20056;-54
2022/08/18 03:17:30;;;;;;;36.35;15.10;;;;;;;;;;5054500;28;20052;-54
2022/08/18 03:19:59;;;;;;;70.05;19.98;;;;;;;;;;5054129;28;20068;-55
2022/08/18 03:22:29;;;;;;;44.75;17.55;;;;;;;;;;5054699;28;20045;-55
2022/08/18 03:24:58;;;;;;;42.17;16.10;;;;;;;;;;5054848;28;20053;-53
2022/08/18 03:27:24;;;;;;;29.92;14.50;;;;;;;;;;5054492;28;20052;-50
2022/08/18 03:30:06;;;;;;;38.35;16.92;;;;;;;;;;5053886;28;20057;-54
2022/08/18 03:32:32;;;;;;;39.03;16.02;;;;;;;;;;5054426;28;20114;-51
2022/08/18 03:35:00;;;;;;;54.85;18.52;;;;;;;;;;5054063;28;20378;-51
2022/08/18 03:37:27;;;;;;;36.40;15.63;;;;;;;;;;5054173;28;20049;-51
2022/08/18 03:39:54;;;;;;;77.63;22.02;;;;;;;;;;5054113;28;20406;-52
2022/08/18 03:42:22;;;;;;;85.03;25.73;;;;;;;;;;5054481;28;20053;-50
2022/08/18 03:44:49;;;;;;;40.55;17.90;;;;;;;;;;5054489;28;20126;-51
2022/08/18 03:47:31;;;;;;;48.53;20.25;;;;;;;;;;5053620;28;20053;-55
2022/08/18 03:50:01;;;;;;;66.72;25.65;;;;;;;;;;5054499;28;20048;-51
2022/08/18 03:52:31;;;;;;;53.55;22.35;;;;;;;;;;5053899;28;20057;-54
2022/08/18 03:54:57;;;;;;;40.10;19.33;;;;;;;;;;5054219;28;20049;-54
2022/08/18 03:57:24;;;;;;;46.47;19.67;;;;;;;;;;5054115;28;20143;-54
2022/08/18 03:59:55;;;;;;;54.17;23.20;;;;;;;;;;5053455;28;20049;-54
2022/08/18 04:02:26;;;;;;;59.13;24.48;;;;;;;;;;5054669;28;20057;-55
2022/08/18 04:04:54;;;;;;;55.25;25.75;;;;;;;;;;5054307;28;20048;-55
2022/08/18 04:07:24;;;;;;;59.58;26.17;;;;;;;;;;5054513;28;20088;-54
2022/08/18 04:09:53;;;;;;;55.38;25.40;;;;;;;;;;5054178;28;20057;-55
2022/08/18 04:12:21;;;;;;;35.60;17.85;;;;;;;;;;5047150;28;20095;-51
2022/08/18 04:14:48;;;;;;;45.47;23.58;;;;;;;;;;5034337;28;20096;-54
2022/08/18 04:17:23;;;;;;;40.45;23.55;;;;;;;;;;5052129;28;20723;-51
2022/08/18 04:20:00;;;;;;;34.47;18.27;;;;;;;;;;5054197;28;20394;-52
2022/08/18 04:22:28;;;;;;;30.60;19.55;;;;;;;;;;5053911;28;20450;-52
2022/08/18 04:24:55;;;;;;;34.58;17.92;;;;;;;;;;5049341;28;20095;-53
2022/08/18 04:27:25;;;;;;;32.30;17.33;;;;;;;;;;5053036;28;20454;-53
2022/08/18 04:29:55;;;;;;;29.98;17.27;;;;;;;;;;5053513;28;20068;-51
2022/08/18 04:32:21;;;;;;;32.67;17.55;;;;;;;;;;5053289;28;20136;-52
2022/08/18 04:34:52;;;;;;;32.53;16.33;;;;;;;;;;5053622;28;20052;-54
2022/08/18 04:37:24;;;;;;;25.95;16.45;;;;;;;;;;5053937;28;20084;-53
2022/08/18 04:39:50;;;;;;;29.27;15.50;;;;;;;;;;5053664;28;20053;-55
2022/08/18 04:42:19;;;;;;;29.33;16.98;;;;;;;;;;5053346;28;20473;-52
2022/08/18 04:44:49;;;;;;;27.77;16.13;;;;;;;;;;5053425;28;20145;-54
2022/08/18 04:47:16;;;;;;;30.38;19.10;;;;;;;;;;5053805;28;20055;-51
2022/08/18 04:49:45;;;;;;;28.33;17.42;;;;;;;;;;5053341;28;20466;-51
2022/08/18 04:55:00;;;;;;;30.88;18.50;;;;;;;;;;5053251;28;20067;-51
2022/08/18 04:57:32;;;;;;;30.77;20.15;;;;;;;;;;5053171;28;20390;-55
2022/08/18 05:00:00;;;;;;;27.92;17.98;;;;;;;;;;5053280;28;20045;-55
2022/08/18 05:02:28;;;;;;;33.63;19.98;;;;;;;;;;5053136;28;20063;-54
2022/08/18 05:05:00;;;;;;;31.02;18.92;;;;;;;;;;5053166;28;20413;-54
2022/08/18 05:07:27;;;;;;;31.20;20.13;;;;;;;;;;5053412;28;20045;-55
2022/08/18 05:09:57;;;;;;;28.88;18.80;;;;;;;;;;5035077;28;20053;-54
2022/08/18 05:12:27;;;;;;;26.70;17.45;;;;;;;;;;5033275;28;20060;-55
2022/08/18 05:15:04;;;;;;;26.67;16.02;;;;;;;;;;5033317;28;20119;-54
2022/08/18 05:17:32;;;;;;;22.65;15.82;;;;;;;;;;5033413;28;20060;-54
2022/08/18 05:19:59;;;;;;;26.05;17.42;;;;;;;;;;5032812;28;20049;-54
2022/08/18 05:22:27;;;;;;;21.20;15.27;;;;;;;;;;5038248;28;20060;-55
2022/08/18 05:25:10;;;;;;;22.15;15.30;;;;;;;;;;5053305;28;20060;-52
2022/08/18 05:27:41;;;;;;;21.10;15.80;;;;;;;;;;5053055;28;20236;-55
2022/08/18 05:30:08;;;;;;;20.38;14.07;;;;;;;;;;5052305;28;20397;-51
2022/08/18 05:32:37;;;;;;;26.00;16.92;;;;;;;;;;5052978;28;20057;-52
2022/08/18 05:35:07;;;;;;;21.55;15.05;;;;;;;;;;5052618;28;20461;-51
2022/08/18 05:37:37;;;;;;;20.85;15.27;;;;;;;;;;5052933;28;20056;-50
2022/08/18 05:40:20;;;;;;;18.20;12.60;;;;;;;;;;5040894;28;20052;-51
2022/08/18 05:42:47;;;;;;;19.80;14.40;;;;;;;;;;5052104;28;20142;-50
2022/08/18 05:45:19;;;;;;;20.92;15.13;;;;;;;;;;5056597;28;20103;-51
2022/08/18 05:47:50;;;;;;;15.82;11.90;;;;;;;;;;5056756;28;20128;-54
2022/08/18 05:50:20;;;;;;;23.02;12.80;;;;;;;;;;5057032;28;20064;-54
2022/08/18 05:52:53;;;;;;;14.48;10.68;;;;;;;;;;5056921;28;20067;-54
2022/08/18 05:58:14;;;;;;;19.40;12.10;;;;;;;;;;5056705;28;20141;-54
2022/08/18 06:00:44;;;;;;;14.73;11.52;;;;;;;;;;5056870;28;20044;-54
2022/08/18 06:03:20;;;;;;;14.43;10.00;;;;;;;;;;5051773;28;20273;-53
2022/08/18 06:05:49;;;;;;;13.50;9.77;;;;;;;;;;5046174;28;20130;-52
2022/08/18 06:08:21;;;;;;;11.70;8.85;;;;;;;;;;5050911;28;20122;-57
2022/08/18 06:10:59;;;;;;;11.88;8.90;;;;;;;;;;5048457;28;20079;-58
2022/08/18 06:13:26;;;;;;;12.82;9.95;;;;;;;;;;5055992;28;20462;-52
2022/08/18 06:16:03;;;;;;;13.85;10.15;;;;;;;;;;5056091;28;20044;-47
2022/08/18 06:18:38;;;;;;;14.98;11.18;;;;;;;;;;5055998;28;20044;-48
2022/08/18 06:21:13;;;;;;;17.55;12.07;;;;;;;;;;5054841;28;20059;-50
2022/08/18 06:23:50;;;;;;;13.35;10.93;;;;;;;;;;5041898;28;20053;-50
2022/08/18 06:26:23;;;;;;;15.30;11.15;;;;;;;;;;5055157;28;20057;-52
2022/08/18 06:28:56;;;;;;;17.88;12.98;;;;;;;;;;5053886;28;20060;-49
2022/08/18 06:31:31;;;;;;;17.08;12.02;;;;;;;;;;5055212;28;20139;-50
2022/08/18 06:34:03;;;;;;;15.55;11.55;;;;;;;;;;5052833;28;20056;-49
2022/08/18 06:36:37;;;;;;;19.10;11.85;;;;;;;;;;5054713;28;20053;-48
2022/08/18 06:39:08;;;;;;;16.10;11.90;;;;;;;;;;5054447;28;20119;-50
2022/08/18 06:41:52;;;;;;;18.83;11.93;;;;;;;;;;5054404;28;20253;-51
2022/08/18 06:44:22;;;;;;;17.30;12.52;;;;;;;;;;5054974;28;20545;-52
2022/08/18 06:46:52;;;;;;;22.52;13.77;;;;;;;;;;5054648;28;20537;-50
2022/08/18 06:49:23;;;;;;;17.63;12.95;;;;;;;;;;5054788;28;20385;-52
2022/08/18 06:51:49;;;;;;;15.13;11.35;;;;;;;;;;5054810;28;20152;-52
2022/08/18 06:54:45;;;;;;;18.63;13.38;;;;;;;;;;5054713;28;20059;-49
2022/08/18 06:57:25;;;;;;;24.27;13.95;;;;;;;;;;5055112;28;20070;-50
2022/08/18 06:59:57;;;;;;;14.90;11.35;;;;;;;;;;5053863;28;20508;-49
2022/08/18 07:02:34;;;;;;;19.42;13.27;;;;;;;;;;5054069;28;20684;-50
2022/08/18 07:05:04;;;;;;;15.10;12.15;;;;;;;;;;5054736;28;20135;-50
2022/08/18 07:07:42;;;;;;;16.17;10.93;;;;;;;;;;5053749;28;20127;-52
2022/08/18 07:10:31;;;;;;;13.68;9.57;;;;;;;;;;5040622;28;20052;-54
2022/08/18 07:13:24;;;;;;;13.60;9.98;;;;;;;;;;5054216;28;20736;-51
2022/08/18 07:15:54;;;;;;;14.93;10.30;;;;;;;;;;5054315;28;20053;-51
2022/08/18 07:18:27;;;;;;;14.35;9.93;;;;;;;;;;5054252;28;20061;-51
2022/08/18 07:21:03;;;;;;;15.38;11.30;;;;;;;;;;5053805;28;20056;-50
2022/08/18 07:23:40;;;;;;;17.02;12.25;;;;;;;;;;5040511;28;20119;-51
2022/08/18 07:26:09;;;;;;;17.33;11.98;;;;;;;;;;5054015;28;20053;-54
2022/08/18 07:28:38;;;;;;;18.02;10.65;;;;;;;;;;5053886;28;20061;-51
2022/08/18 07:31:23;;;;;;;17.92;10.82;;;;;;;;;;5053339;28;20143;-48
2022/08/18 07:34:03;;;;;;;14.60;9.52;;;;;;;;;;5053967;28;20062;-51
2022/08/18 07:36:42;;;;;;;11.98;9.52;;;;;;;;;;5053636;28;20103;-52
2022/08/18 07:39:16;;;;;;;17.85;10.07;;;;;;;;;;5053778;28;20060;-52
2022/08/18 07:41:51;;;;;;;12.43;9.17;;;;;;;;;;5054021;28;20053;-52
2022/08/18 07:44:20;;;;;;;12.23;9.60;;;;;;;;;;5053669;28;20048;-49
2022/08/18 07:47:02;;;;;;;15.40;10.45;;;;;;;;;;5053131;28;20063;-49
2022/08/18 07:49:45;;;;;;;16.73;10.13;;;;;;;;;;5053365;28;20133;-52
2022/08/18 07:52:16;;;;;;;11.07;8.45;;;;;;;;;;5053298;28;20374;-51
2022/08/18 07:54:49;;;;;;;13.75;9.20;;;;;;;;;;5052006;28;20095;-56
2022/08/18 07:57:25;;;;;;;13.52;9.90;;;;;;;;;;5046145;28;20053;-54
2022/08/18 07:59:54;;;;;;;;;;;;;;;;;;5053962;28;20470;-53
2022/08/18 08:02:38;;;;;;;15.07;8.68;;;;;;;;;;5050452;28;19920;-51
2022/08/18 08:05:10;;;;;;;12.18;9.70;;;;;;;;;;5049558;28;20048;-51
2022/08/18 08:07:40;;;;;;;14.13;9.68;;;;;;;;;;5050988;28;20045;-52
2022/08/18 08:10:26;;;;;;;13.18;9.70;;;;;;;;;;5044555;28;20473;-51
2022/08/18 08:13:01;;;;;;;13.10;10.20;;;;;;;;;;5053360;28;20060;-54
2022/08/18 08:15:45;;;;;;;14.95;9.13;;;;;;;;;;5047438;28;20053;-51
2022/08/18 08:18:21;;;;;;;15.82;9.50;;;;;;;;;;5049679;28;20478;-55
2022/08/18 08:20:54;;;;;;;16.73;10.93;;;;;;;;;;5043655;28;20517;-55
2022/08/18 08:23:26;;;;;;;14.00;9.20;;;;;;;;;;5052097;28;20060;-51
2022/08/18 08:25:59;;;;;;;12.18;10.38;;;;;;;;;;5051207;28;20045;-51
2022/08/18 08:28:39;;;;;;;16.25;10.77;;;;;;;;;;5046183;28;20088;-51
2022/08/18 08:31:09;;;;;;;12.38;10.35;;;;;;;;;;5045375;28;20118;-55
2022/08/18 08:33:41;;;;;;;13.43;11.40;;;;;;;;;;5047593;28;20052;-54
2022/08/18 08:36:12;;;;;;;13.93;9.75;;;;;;;;;;5050387;28;20047;-51
2022/08/18 08:38:53;;;;;;;14.07;10.65;;;;;;;;;;5052571;28;20457;-53
2022/08/18 08:41:27;;;;;;;13.98;11.32;;;;;;;;;;5052120;28;20055;-50
2022/08/18 08:44:02;;;;;;;15.65;11.15;;;;;;;;;;5048755;28;20049;-51
2022/08/18 08:46:34;;;;;;;11.02;9.88;;;;;;;;;;5049210;28;20053;-50
2022/08/18 08:49:06;;;;;;;14.23;10.23;;;;;;;;;;5044462;28;20049;-50
2022/08/18 08:51:36;;;;;;;10.90;9.70;;;;;;;;;;5049243;28;20061;-51
2022/08/18 08:54:06;;;;;;;17.83;11.13;;;;;;;;;;5039586;28;20461;-53
2022/08/18 08:56:39;;;;;;;12.65;10.10;;;;;;;;;;5051856;28;20144;-53
2022/08/18 08:59:12;;;;;;;14.57;10.63;;;;;;;;;;5044313;28;20076;-53
2022/08/18 09:01:46;;;;;;;13.68;11.07;;;;;;;;;;5050471;28;20068;-54
2022/08/18 09:04:31;;;;;;;12.73;10.32;;;;;;;;;;5040043;28;20107;-49
2022/08/18 09:07:15;;;;;;;12.35;10.80;;;;;;;;;;5051860;28;20090;-49
2022/08/18 09:10:00;;;;;;;10.45;9.13;;;;;;;;;;5049273;28;20053;-51
2022/08/18 09:12:56;;;;;;;12.48;8.80;;;;;;;;;;5044043;28;20076;-52
2022/08/18 09:15:43;;;;;;;13.20;10.32;;;;;;;;;;5049353;28;20063;-52
2022/08/18 09:18:42;;;;;;;13.02;10.27;;;;;;;;;;5052296;28;20505;-50
2022/08/18 09:21:20;;;;;;;15.55;10.52;;;;;;;;;;5031498;28;20141;-50
2022/08/18 09:23:51;;;;;;;13.10;10.45;;;;;;;;;;5045785;28;20052;-50
2022/08/18 09:26:41;;;;;;;16.48;11.35;;;;;;;;;;5051314;28;20140;-51
2022/08/18 09:29:47;;;;;;;13.40;9.65;;;;;;;;;;5050388;28;20398;-51
2022/08/18 09:32:34;;;;;;;15.52;9.65;;;;;;;;;;5047218;28;20054;-55
2022/08/18 09:35:18;;;;;;;10.40;9.27;;;;;;;;;;5047154;28;20134;-53
2022/08/18 09:41:30;;;;;;;16.75;10.15;;;;;;;;;;5050660;28;20049;-50
2022/08/18 09:43:38;;;;;;;19.33;9.30;;;;;;;;;;5046757;28;20063;-52
2022/08/18 09:46:09;;;;;;;11.02;8.27;;;;;;;;;;5039998;28;20050;-51
2022/08/18 09:48:37;;;;;;;12.85;10.77;;;;;;;;;;5046134;28;20368;-52
2022/08/18 09:51:22;;;;;;;10.20;9.20;;;;;;;;;;5044477;28;20118;-49
2022/08/18 09:54:05;;;;;;;15.32;10.75;;;;;;;;;;5033606;28;20056;-49
2022/08/18 09:56:55;;;;;;;14.68;9.38;;;;;;;;;;5051234;28;20133;-51
2022/08/18 09:59:47;;;;;;;9.23;8.13;;;;;;;;;;5035330;28;20057;-51
2022/08/18 10:02:39;;;;;;;13.20;7.88;;;;;;;;;;5039328;28;20073;-51
2022/08/18 10:05:25;;;;;;;10.30;8.80;;;;;;;;;;5045574;28;20056;-52
2022/08/18 10:07:56;;;;;;;9.70;8.38;;;;;;;;;;5051181;28;20041;-52
2022/08/18 10:10:26;;;;;;;17.00;9.30;;;;;;;;;;5039095;28;20047;-51
2022/08/18 10:12:58;;;;;;;13.05;9.98;;;;;;;;;;5042564;28;20049;-51
2022/08/18 10:15:42;;;;;;;10.25;9.20;;;;;;;;;;5047062;28;20128;-51
2022/08/18 10:18:17;;;;;;;10.10;8.13;;;;;;;;;;5049363;28;20049;-51
2022/08/18 10:20:51;;;;;;;12.65;9.05;;;;;;;;;;5046633;28;20061;-52
2022/08/18 10:23:36;;;;;;;11.40;7.75;;;;;;;;;;5043313;28;20048;-51
2022/08/18 10:26:05;;;;;;;11.52;8.70;;;;;;;;;;5038239;28;20077;-49
2022/08/18 10:28:51;;;;;;;9.00;7.72;;;;;;;;;;5046783;28;20413;-52
2022/08/18 10:31:20;;;;;;;11.10;9.65;;;;;;;;;;5052248;28;20136;-56
2022/08/18 10:34:00;;;;;;;11.88;10.40;;;;;;;;;;5044067;28;20182;-54
2022/08/18 10:36:33;;;;;;;12.85;10.75;;;;;;;;;;5055011;28;20045;-53
2022/08/18 10:39:06;;;;;;;13.30;9.32;;;;;;;;;;5049861;28;20045;-55
2022/08/18 10:41:33;;;;;;;11.20;9.67;;;;;;;;;;5051263;28;20091;-51
2022/08/18 10:44:02;;;;;;;12.55;10.02;;;;;;;;;;5043588;28;20859;-55
2022/08/18 10:46:33;;;;;;;10.05;9.05;;;;;;;;;;5054585;28;20045;-54
2022/08/18 10:49:15;;;;;;;12.48;9.45;;;;;;;;;;5050049;28;20053;-54
2022/08/18 10:52:00;;;;;;;12.38;9.98;;;;;;;;;;5054061;28;20053;-54
2022/08/18 10:54:33;;;;;;;14.48;10.00;;;;;;;;;;5045401;28;20054;-55
2022/08/18 10:57:08;;;;;;;10.82;9.20;;;;;;;;;;5054416;28;20052;-51
2022/08/18 10:59:38;;;;;;;11.95;8.02;;;;;;;;;;5051919;28;20053;-50
2022/08/18 11:02:13;;;;;;;13.82;8.20;;;;;;;;;;5049490;28;20147;-52
2022/08/18 11:04:48;;;;;;;13.90;9.68;;;;;;;;;;5047262;28;20057;-53
2022/08/18 11:07:18;;;;;;;10.20;8.15;;;;;;;;;;5053788;28;20045;-51
2022/08/18 11:09:54;;;;;;;11.35;8.38;;;;;;;;;;5053964;28;20081;-53
2022/08/18 11:12:42;;;;;;;16.25;9.57;;;;;;;;;;5047114;28;20081;-53
2022/08/18 11:15:16;;;;;;;9.25;8.00;;;;;;;;;;5046311;28;20117;-54
2022/08/18 11:17:55;;;;;;;16.52;9.25;;;;;;;;;;5052258;28;20079;-51
2022/08/18 11:20:27;;;;;;;14.60;10.27;;;;;;;;;;5041512;28;20048;-54
2022/08/18 11:22:54;;;;;;;9.32;8.32;;;;;;;;;;5045577;28;20127;-49
2022/08/18 11:25:26;;;;;;;11.93;9.32;;;;;;;;;;5049101;28;20082;-53
2022/08/18 11:27:55;;;;;;;15.10;9.95;;;;;;;;;;5052135;28;20481;-53
2022/08/18 11:30:21;;;;;;;14.90;9.80;;;;;;;;;;5033758;28;20135;-52
2022/08/18 11:32:49;;;;;;;17.42;10.23;;;;;;;;;;5034505;28;20107;-54
2022/08/18 11:35:17;;;;;;;14.15;9.93;;;;;;;;;;5042485;28;20359;-52
2022/08/18 11:37:48;;;;;;;12.75;9.40;;;;;;;;;;5052561;28;20124;-55
2022/08/18 11:40:25;;;;;;;15.07;10.98;;;;;;;;;;5038022;28;20072;-57
2022/08/18 11:42:54;;;;;;;10.40;9.30;;;;;;;;;;5048271;28;20064;-55
2022/08/18 11:45:21;;;;;;;10.88;8.75;;;;;;;;;;5048772;28;20136;-57
2022/08/18 11:47:58;;;;;;;15.32;10.88;;;;;;;;;;5049650;28;20047;-56
2022/08/18 11:50:27;;;;;;;10.18;9.05;;;;;;;;;;5039078;28;20041;-50
2022/08/18 11:52:55;;;;;;;11.70;9.80;;;;;;;;;;5052749;28;20055;-50
2022/08/18 11:55:27;;;;;;;13.88;10.18;;;;;;;;;;5048090;28;20053;-50
2022/08/18 11:57:55;;;;;;;14.40;10.23;;;;;;;;;;5052341;28;20052;-49
2022/08/18 12:00:38;;;;;;;13.43;9.45;;;;;;;;;;5046229;28;20405;-49
2022/08/18 12:03:06;;;;;;;15.30;10.35;;;;;;;;;;5048205;28;20457;-50
2022/08/18 12:05:52;;;;;;;11.80;9.82;;;;;;;;;;5047860;28;20056;-49
2022/08/18 12:08:35;;;;;;;11.93;9.48;;;;;;;;;;5050747;28;20481;-49
2022/08/18 12:11:10;;;;;;;9.88;8.35;;;;;;;;;;5052799;28;20056;-51
2022/08/18 12:13:39;;;;;;;13.68;9.63;;;;;;;;;;5049462;28;20141;-49
2022/08/18 12:16:14;;;;;;;15.63;10.75;;;;;;;;;;5047500;28;20057;-49
2022/08/18 12:18:45;;;;;;;11.18;9.10;;;;;;;;;;5046346;28;20072;-52
2022/08/18 12:21:15;;;;;;;18.40;10.40;;;;;;;;;;5050724;28;20102;-50
2022/08/18 12:23:45;;;;;;;14.10;11.18;;;;;;;;;;5048359;28;20488;-49
2022/08/18 12:26:12;;;;;;;14.45;9.73;;;;;;;;;;5050741;28;20052;-49
2022/08/18 12:28:42;;;;;;;29.38;11.38;;;;;;;;;;5053082;28;20060;-49
2022/08/18 12:31:12;;;;;;;13.98;9.85;;;;;;;;;;5052503;28;20505;-50
2022/08/18 12:33:41;;;;;;;13.90;9.00;;;;;;;;;;5046281;28;20131;-51
2022/08/18 12:36:12;;;;;;;15.10;9.20;;;;;;;;;;5051527;28;20404;-49
2022/08/18 12:38:42;;;;;;;12.30;11.00;;;;;;;;;;5047858;28;20048;-50
2022/08/18 12:41:18;;;;;;;12.00;9.50;;;;;;;;;;5049741;28;20049;-50
2022/08/18 12:43:48;;;;;;;16.02;10.00;;;;;;;;;;5047285;28;20056;-51
2022/08/18 12:46:14;;;;;;;13.55;10.13;;;;;;;;;;5050824;28;20485;-55
2022/08/18 12:48:44;;;;;;;10.68;9.57;;;;;;;;;;5052557;28;20055;-56
2022/08/18 12:51:13;;;;;;;16.50;10.88;;;;;;;;;;5052813;28;20056;-56
2022/08/18 12:53:43;;;;;;;12.93;9.32;;;;;;;;;;5050508;28;20057;-54
2022/08/18 12:56:29;;;;;;;12.88;9.00;;;;;;;;;;5052571;28;20458;-55
2022/08/18 12:58:56;;;;;;;13.60;8.40;;;;;;;;;;5050430;28;20051;-54
2022/08/18 13:01:25;;;;;;;10.80;8.43;;;;;;;;;;5052635;28;20045;-51
2022/08/18 13:03:56;;;;;;;9.70;7.82;;;;;;;;;;5050014;28;20131;-53
2022/08/18 13:06:24;;;;;;;12.15;8.88;;;;;;;;;;5050983;28;20053;-52
2022/08/18 13:08:55;;;;;;;23.42;10.23;;;;;;;;;;5052329;28;20469;-52
2022/08/18 13:11:26;;;;;;;12.50;9.40;;;;;;;;;;5053325;28;20128;-55
2022/08/18 13:13:55;;;;;;;10.57;8.52;;;;;;;;;;5045733;28;20049;-55
2022/08/18 13:16:31;;;;;;;9.38;8.40;;;;;;;;;;5049861;28;20045;-53
2022/08/18 13:18:58;;;;;;;14.40;9.23;;;;;;;;;;5042345;28;20081;-55
2022/08/18 13:21:25;;;;;;;11.07;8.20;;;;;;;;;;5047430;28;20454;-50
2022/08/18 13:23:55;;;;;;;12.73;10.10;;;;;;;;;;5048339;28;20052;-49
2022/08/18 13:26:32;;;;;;;14.15;8.65;;;;;;;;;;5047620;28;20134;-50
2022/08/18 13:29:03;;;;;;;11.07;8.05;;;;;;;;;;5045824;28;20128;-53
2022/08/18 13:31:32;;;;;;;11.70;8.77;;;;;;;;;;5040978;28;20100;-57
2022/08/18 13:33:59;;;;;;;11.85;9.02;;;;;;;;;;5051648;28;20147;-54
2022/08/18 13:36:43;;;;;;;13.95;9.43;;;;;;;;;;5051023;28;20095;-53
2022/08/18 13:39:12;;;;;;;17.92;9.15;;;;;;;;;;5041155;28;20049;-52
2022/08/18 13:41:42;;;;;;;10.63;9.15;;;;;;;;;;5046308;28;20053;-54
2022/08/18 13:44:21;;;;;;;12.68;8.57;;;;;;;;;;5043036;28;20132;-50
2022/08/18 13:46:48;;;;;;;11.82;8.40;;;;;;;;;;5046754;28;20053;-56
2022/08/18 13:49:15;;;;;;;13.57;8.82;;;;;;;;;;5051744;28;20095;-49
2022/08/18 13:51:44;;;;;;;10.20;8.48;;;;;;;;;;5049157;28;20048;-50
2022/08/18 13:54:18;;;;;;;12.27;8.90;;;;;;;;;;5043896;28;20048;-50
2022/08/18 13:56:46;;;;;;;10.00;8.67;;;;;;;;;;5035711;28;20049;-50
2022/08/18 13:59:25;;;;;;;11.23;8.52;;;;;;;;;;5051324;28;20374;-50
2022/08/18 14:04:37;;;;;;;12.98;8.43;;;;;;;;;;5046672;28;20067;-53
2022/08/18 14:07:08;;;;;;;10.32;7.30;;;;;;;;;;5054173;28;20053;-50
2022/08/18 14:09:38;;;;;;;14.27;9.00;;;;;;;;;;5050569;28;20060;-50
2022/08/18 14:12:14;;;;;;;13.13;7.75;;;;;;;;;;5051240;28;20048;-52
2022/08/18 14:14:54;;;;;;;12.27;7.25;;;;;;;;;;5045111;28;20064;-53
2022/08/18 14:17:22;;;;;;;10.80;7.32;;;;;;;;;;5054629;28;20053;-50
2022/08/18 14:28:14;;;;;;;9.63;7.67;;;;;;;;;;5044879;28;20044;-51
2022/08/18 14:30:48;;;;;;;8.00;7.20;;;;;;;;;;5054225;28;20168;-52
2022/08/18 14:33:17;;;;;;;11.77;7.65;;;;;;;;;;5049348;28;20400;-51
2022/08/18 14:35:46;;;;;;;17.83;7.63;;;;;;;;;;5054898;28;20052;-51
2022/08/18 14:38:13;;;;;;;10.93;6.90;;;;;;;;;;5056051;28;20377;-50
2022/08/18 14:40:47;;;;;;;11.40;7.18;;;;;;;;;;5050478;28;20053;-50
2022/08/18 14:43:16;;;;;;;11.20;6.88;;;;;;;;;;5055486;28;20118;-52
2022/08/18 14:45:54;;;;;;;12.63;6.88;;;;;;;;;;5054558;28;20378;-52
2022/08/18 14:48:22;;;;;;;10.05;7.88;;;;;;;;;;5048957;28;20060;-51
2022/08/18 14:50:54;;;;;;;21.85;7.80;;;;;;;;;;5055101;28;20061;-51
2022/08/18 14:53:25;;;;;;;17.42;7.97;;;;;;;;;;5048907;28;20419;-52
2022/08/18 14:55:52;;;;;;;9.63;6.78;;;;;;;;;;5051543;28;20385;-50
2022/08/18 14:58:22;;;;;;;11.93;6.97;;;;;;;;;;5054806;28;20049;-51
2022/08/18 15:00:53;;;;;;;10.77;6.68;;;;;;;;;;5055128;28;20091;-54
2022/08/18 15:03:20;;;;;;;9.10;6.30;;;;;;;;;;5055754;28;20072;-54
2022/08/18 15:05:51;;;;;;;26.15;7.45;;;;;;;;;;5054264;28;20052;-53
2022/08/18 15:08:19;;;;;;;15.20;7.03;;;;;;;;;;5055301;28;20049;-54
2022/08/18 15:10:50;;;;;;;11.23;7.03;;;;;;;;;;5055177;28;20053;-53
2022/08/18 15:13:18;;;;;;;9.55;5.80;;;;;;;;;;5054622;28;20127;-54
2022/08/18 15:15:44;;;;;;;11.52;6.53;;;;;;;;;;5055120;28;20049;-54
2022/08/18 15:18:13;;;;;;;8.73;6.15;;;;;;;;;;5053050;28;20056;-53
2022/08/18 15:26:07;;;;;;;8.93;6.30;;;;;;;;;;5050926;28;20976;-52
2022/08/18 15:28:37;;;;;;;13.38;6.47;;;;;;;;;;5054471;28;20155;-54
2022/08/18 15:31:06;;;;;;;6.20;5.10;;;;;;;;;;5053867;28;20052;-53
2022/08/18 15:33:44;;;;;;;9.65;6.00;;;;;;;;;;5046299;28;20140;-54